Albuquerque, NM (87106)

10:08 PM MDT on June 25, 2017 (GMT -0600)
| | Change Station
Active Advisory: Severe Thunderstorm Watch

Elev -9999 ft 0.00 °N, 0.00 °E | Updated

Overcast
Overcast
°F
Feels Like °F
N
Wind Variable Wind from North
Gusts mph

Today
High -- | Low -- °F
--% Chance of Precip.
Yesterday
High -- | Low -- °F
Precip. -- in
Pressure 30.04 in
Visibility 10.0 miles
Clouds Mostly Cloudy 18000 ft
Overcast 25000 ft
Dew Point Not available.
Humidity Not available.
Rainfall --
Snow Depth Not available.
5:53 AM 8:24 PM
Waxing Crescent, 6% visible
METAR KABQ 260352Z 10003KT 10SM BKN180 OVC250 21/11 A3027 RMK AO2 SLP171 T02110106
Pressure 30.04 in
Visibility 10.0 miles
Clouds Mostly Cloudy 18000 ft
Overcast 25000 ft
Dew Point Not available.
Humidity Not available.
Rainfall --
Snow Depth Not available.
5:53 AM 8:24 PM
Waxing Crescent, 6% visible
METAR KABQ 260352Z 10003KT 10SM BKN180 OVC250 21/11 A3027 RMK AO2 SLP171 T02110106

Get Your Daily Forecast Email!

Thanks for signing up!

Be on the lookout for a verification email in your inbox.

You'll start receiving severe weather alerts in your inbox..

×

10-Day Weather Forecast

Almanac

Astronomy

Jun. 25, 2017 Rise Set
Actual Time
Civil Twilight
Nautical Twilight
Astronomical Twilight
Moon
Length of Visible Light
Length of Day
Tomorrow will be .
, % of the Moon is Illuminated

Today's Extremes

State Highs State Lows

Community

WunderPhotos

Category 6

Welcome to Category 6. This is the collective home for Weather Underground's featured writeups by Dr. Jeff Masters (right), Bob Henson (left), Chris Burt, and other regular contributors.

Nearby

Air Quality

  Air Quality AQ Index Pollutant
Not available.

Snow Depth

Station Depth Elevation

Earthquake Activity

City Distance Mag. Time & Date
Minimum magnitude displayed is 2.5.

Coastal Water Temperatures

Place Temperature

Stations

Nearby Weather Stations

Station Location Temp. Windchill Dew Point Humidity Wind Precip. Elev Updated Type
                   

Watches & Warnings

Severe Thunderstorm Watch
Issued: 10:03 PM MDT Jun. 25, 2017 – National Weather Service

Severe Thunderstorm Watch 370 remains in effect until 1200 am MDT

Nm
. New Mexico counties included are

Chaves Colfax Curry
De Baca Guadalupe Harding
Lincoln Mora Quay
Roosevelt San Miguel Santa Fe
Torrance Union